Time;durP1;ratioP1;P1;durP2;ratioP2;P2;SDS_P1;SDS_P2;PMS_P1;PMS_P2;Temp;Humidity;BMP_temperature;BMP_pressure;BME280_temperature;BME280_humidity;BME280_pressure;Samples;Min_cycle;Max_cycle;Signal;HPM_P1;HPM_P2
2022/09/30 00:00:42;;;;;;;0.70;0.70;;;;;;;;;;4960303;28;20518;-58
2022/09/30 00:03:28;;;;;;;0.88;0.70;;;;;;;;;;4958515;28;20058;-59
2022/09/30 00:06:14;;;;;;;1.48;0.80;;;;;;;;;;4958123;28;20032;-59
2022/09/30 00:09:01;;;;;;;0.60;0.60;;;;;;;;;;4960920;28;20050;-59
2022/09/30 00:11:46;;;;;;;3.33;0.93;;;;;;;;;;4956880;28;20113;-59
2022/09/30 00:14:32;;;;;;;2.40;0.75;;;;;;;;;;4957979;28;20432;-59
2022/09/30 00:17:18;;;;;;;3.47;0.60;;;;;;;;;;4962109;28;20625;-59
2022/09/30 00:20:04;;;;;;;0.80;0.60;;;;;;;;;;4959131;28;20483;-58
2022/09/30 00:22:50;;;;;;;0.63;0.60;;;;;;;;;;4957140;28;20043;-59
2022/09/30 00:25:35;;;;;;;0.63;0.63;;;;;;;;;;4956257;28;20042;-58
2022/09/30 00:28:21;;;;;;;1.15;0.90;;;;;;;;;;4958923;28;20449;-58
2022/09/30 00:31:13;;;;;;;2.80;1.02;;;;;;;;;;4955444;28;20035;-59
2022/09/30 00:34:05;;;;;;;0.95;0.63;;;;;;;;;;4960976;28;20043;-58
2022/09/30 00:36:54;;;;;;;0.70;0.70;;;;;;;;;;4955794;28;20055;-59
2022/09/30 00:39:40;;;;;;;0.73;0.73;;;;;;;;;;4959174;28;20043;-59
2022/09/30 00:42:28;;;;;;;3.42;0.60;;;;;;;;;;4951566;28;20154;-59
2022/09/30 00:45:16;;;;;;;3.38;0.68;;;;;;;;;;4952759;28;20488;-59
2022/09/30 00:48:14;;;;;;;0.93;0.70;;;;;;;;;;4959365;28;20382;-58
2022/09/30 00:51:01;;;;;;;0.95;0.50;;;;;;;;;;4958906;28;20047;-59
2022/09/30 00:53:54;;;;;;;1.10;0.70;;;;;;;;;;4958100;28;20043;-59
2022/09/30 00:56:45;;;;;;;1.15;0.73;;;;;;;;;;4957591;28;20066;-58
2022/09/30 00:59:38;;;;;;;1.83;0.80;;;;;;;;;;4953058;28;20589;-58
2022/09/30 01:02:24;;;;;;;1.05;0.75;;;;;;;;;;4958830;28;20503;-59
2022/09/30 01:05:10;;;;;;;1.08;0.77;;;;;;;;;;4957294;28;20536;-59
2022/09/30 01:07:58;;;;;;;0.60;0.60;;;;;;;;;;4958544;28;20039;-59
2022/09/30 01:10:44;;;;;;;1.33;0.80;;;;;;;;;;4957230;28;20027;-58
2022/09/30 01:13:32;;;;;;;1.75;0.60;;;;;;;;;;4955497;28;20041;-59
2022/09/30 01:16:33;;;;;;;1.60;0.90;;;;;;;;;;4955694;28;20038;-59
2022/09/30 01:19:57;;;;;;;0.80;0.53;;;;;;;;;;4957575;28;20078;-59
2022/09/30 01:23:31;;;;;;;0.63;0.40;;;;;;;;;;4951090;28;21016;-59
2022/09/30 01:26:37;;;;;;;0.50;0.50;;;;;;;;;;4948291;28;20043;-59
2022/09/30 01:29:44;;;;;;;3.00;0.80;;;;;;;;;;4952109;28;20503;-58
2022/09/30 01:32:49;;;;;;;0.70;0.70;;;;;;;;;;4955207;28;20043;-58
2022/09/30 01:35:56;;;;;;;0.98;0.90;;;;;;;;;;4954782;28;20129;-59
2022/09/30 01:38:54;;;;;;;0.52;0.52;;;;;;;;;;4960001;28;20522;-58
2022/09/30 01:41:54;;;;;;;4.82;0.90;;;;;;;;;;4957628;28;20434;-58
2022/09/30 01:44:43;;;;;;;0.75;0.50;;;;;;;;;;4956478;28;20089;-59
2022/09/30 01:47:35;;;;;;;0.57;0.57;;;;;;;;;;4948245;28;20106;-58
2022/09/30 01:50:51;;;;;;;0.88;0.70;;;;;;;;;;4952271;28;20073;-58
2022/09/30 01:54:02;;;;;;;0.88;0.80;;;;;;;;;;4952093;28;20047;-59
2022/09/30 01:56:53;;;;;;;1.58;0.93;;;;;;;;;;4951339;28;20035;-59
2022/09/30 02:00:05;;;;;;;1.27;0.80;;;;;;;;;;4953960;28;20049;-59
2022/09/30 02:03:11;;;;;;;1.17;0.68;;;;;;;;;;4956221;28;20043;-59
2022/09/30 02:06:03;;;;;;;1.35;0.80;;;;;;;;;;4954388;28;20045;-59
2022/09/30 02:09:00;;;;;;;1.52;0.80;;;;;;;;;;4955145;28;20075;-59
2022/09/30 02:11:46;;;;;;;1.10;0.73;;;;;;;;;;4950824;28;20027;-58
2022/09/30 02:14:40;;;;;;;0.85;0.70;;;;;;;;;;4955042;28;20062;-59
2022/09/30 02:17:36;;;;;;;1.98;0.80;;;;;;;;;;4953694;28;20067;-59
2022/09/30 02:20:28;;;;;;;1.58;0.60;;;;;;;;;;4949589;28;20127;-59
2022/09/30 02:23:20;;;;;;;0.68;0.68;;;;;;;;;;4959868;28;20039;-59
2022/09/30 02:26:15;;;;;;;2.13;0.93;;;;;;;;;;4955015;28;20031;-58
2022/09/30 02:29:27;;;;;;;0.82;0.70;;;;;;;;;;4955048;28;20385;-58
2022/09/30 02:32:32;;;;;;;2.00;0.70;;;;;;;;;;4957004;28;20051;-58
2022/09/30 02:35:42;;;;;;;2.42;0.70;;;;;;;;;;4955129;28;20035;-59
2022/09/30 02:38:36;;;;;;;5.53;1.02;;;;;;;;;;4953080;28;20049;-57
2022/09/30 02:41:25;;;;;;;1.52;0.90;;;;;;;;;;4954339;28;20031;-54
2022/09/30 02:44:11;;;;;;;2.55;0.85;;;;;;;;;;4959066;28;20039;-59
2022/09/30 02:47:26;;;;;;;1.58;0.80;;;;;;;;;;4956043;28;20420;-58
2022/09/30 02:50:22;;;;;;;0.88;0.70;;;;;;;;;;4953516;28;20039;-58
2022/09/30 02:53:30;;;;;;;1.00;0.93;;;;;;;;;;4955518;28;20039;-59
2022/09/30 02:56:28;;;;;;;4.80;0.93;;;;;;;;;;4951502;28;20400;-59
2022/09/30 02:59:14;;;;;;;1.67;0.60;;;;;;;;;;4950619;28;20534;-59
2022/09/30 03:02:00;;;;;;;0.65;0.65;;;;;;;;;;4950989;28;20043;-59
2022/09/30 03:04:48;;;;;;;3.63;1.30;;;;;;;;;;4953519;28;20444;-59
2022/09/30 03:07:34;;;;;;;1.85;0.90;;;;;;;;;;4955165;28;20044;-59
2022/09/30 03:10:20;;;;;;;1.00;0.90;;;;;;;;;;4949296;28;20093;-59
2022/09/30 03:13:18;;;;;;;4.95;0.80;;;;;;;;;;4951711;28;20468;-57
2022/09/30 03:16:45;;;;;;;1.45;0.90;;;;;;;;;;4955486;28;20637;-58
2022/09/30 03:19:53;;;;;;;3.10;1.00;;;;;;;;;;4953362;28;20039;-59
2022/09/30 03:23:10;;;;;;;1.35;0.90;;;;;;;;;;4957462;28;20047;-59
2022/09/30 03:26:18;;;;;;;1.67;1.05;;;;;;;;;;4958159;28;20217;-56
2022/09/30 03:29:26;;;;;;;2.85;1.10;;;;;;;;;;4956597;28;20090;-59
2022/09/30 03:32:21;;;;;;;4.18;0.88;;;;;;;;;;4950696;28;20039;-58
2022/09/30 03:35:42;;;;;;;1.90;0.73;;;;;;;;;;4959900;28;20396;-59
2022/09/30 03:38:28;;;;;;;2.00;0.88;;;;;;;;;;4959952;28;20074;-59
2022/09/30 03:41:29;;;;;;;2.22;1.02;;;;;;;;;;4955443;28;20086;-59
2022/09/30 03:44:27;;;;;;;3.00;0.90;;;;;;;;;;4957115;28;20046;-59
2022/09/30 03:47:16;;;;;;;1.60;1.00;;;;;;;;;;4960735;28;20044;-59
2022/09/30 03:50:07;;;;;;;2.20;0.88;;;;;;;;;;4958976;28;20059;-59
2022/09/30 03:52:53;;;;;;;4.22;0.90;;;;;;;;;;4955602;28;20094;-59
2022/09/30 03:55:48;;;;;;;2.15;0.98;;;;;;;;;;4952033;28;20062;-57
2022/09/30 03:58:39;;;;;;;2.05;1.13;;;;;;;;;;4957322;28;20125;-58
2022/09/30 04:01:25;;;;;;;1.13;1.02;;;;;;;;;;4957170;28;20035;-58
2022/09/30 04:04:11;;;;;;;3.17;1.02;;;;;;;;;;4955908;28;20049;-59
2022/09/30 04:06:57;;;;;;;1.13;0.85;;;;;;;;;;4954320;28;20445;-58
2022/09/30 04:09:42;;;;;;;1.48;0.82;;;;;;;;;;4956873;28;20479;-59
2022/09/30 04:12:28;;;;;;;1.67;1.00;;;;;;;;;;4957719;28;20066;-58
2022/09/30 04:15:14;;;;;;;1.25;0.70;;;;;;;;;;4952730;28;20090;-59
2022/09/30 04:17:59;;;;;;;0.90;0.80;;;;;;;;;;4955353;28;20031;-58
2022/09/30 04:20:45;;;;;;;1.17;0.98;;;;;;;;;;4957182;28;20491;-58
2022/09/30 04:23:34;;;;;;;1.90;1.00;;;;;;;;;;4958778;28;20042;-58
2022/09/30 04:26:20;;;;;;;1.23;0.90;;;;;;;;;;4959572;28;20058;-59
2022/09/30 04:29:06;;;;;;;0.75;0.75;;;;;;;;;;4951067;28;20193;-57
2022/09/30 04:31:52;;;;;;;1.15;0.80;;;;;;;;;;4958703;28;20558;-58
2022/09/30 04:34:38;;;;;;;1.70;1.00;;;;;;;;;;4954769;28;20141;-58
2022/09/30 04:37:23;;;;;;;5.47;1.02;;;;;;;;;;4957614;28;20535;-58
2022/09/30 04:40:11;;;;;;;1.20;1.00;;;;;;;;;;4954963;28;20054;-58
2022/09/30 04:42:57;;;;;;;2.28;0.88;;;;;;;;;;4955205;28;20038;-58
2022/09/30 04:45:43;;;;;;;1.95;1.10;;;;;;;;;;4959859;28;20035;-59
2022/09/30 04:48:30;;;;;;;2.70;0.98;;;;;;;;;;4960246;28;20038;-59
2022/09/30 04:51:17;;;;;;;2.67;1.33;;;;;;;;;;4953575;28;20102;-59
2022/09/30 04:54:03;;;;;;;0.75;0.75;;;;;;;;;;4956897;28;20534;-58
2022/09/30 04:56:49;;;;;;;1.38;0.77;;;;;;;;;;4941178;28;20101;-59
2022/09/30 04:59:35;;;;;;;2.58;0.93;;;;;;;;;;4956773;28;20031;-58
2022/09/30 05:02:21;;;;;;;2.75;1.10;;;;;;;;;;4955740;28;20055;-58
2022/09/30 05:05:07;;;;;;;1.00;0.90;;;;;;;;;;4950393;28;20452;-59
2022/09/30 05:07:57;;;;;;;1.17;1.00;;;;;;;;;;4956930;28;20415;-58
2022/09/30 05:10:45;;;;;;;0.90;0.80;;;;;;;;;;4954047;28;20464;-57
2022/09/30 05:13:34;;;;;;;1.35;0.77;;;;;;;;;;4953582;28;20054;-59
2022/09/30 05:16:20;;;;;;;2.10;1.05;;;;;;;;;;4954544;28;20042;-59
2022/09/30 05:19:06;;;;;;;2.28;1.05;;;;;;;;;;4955089;28;20114;-59
2022/09/30 05:21:51;;;;;;;2.28;1.33;;;;;;;;;;4957664;28;20474;-59
2022/09/30 05:24:37;;;;;;;2.25;1.30;;;;;;;;;;4958095;28;20030;-59
2022/09/30 05:27:23;;;;;;;0.90;0.88;;;;;;;;;;4948872;28;20396;-58
2022/09/30 05:30:09;;;;;;;1.52;1.00;;;;;;;;;;4948560;28;20039;-59
2022/09/30 05:32:55;;;;;;;0.77;0.73;;;;;;;;;;4944909;28;20522;-59
2022/09/30 05:35:42;;;;;;;1.35;0.70;;;;;;;;;;4950218;28;20051;-59
2022/09/30 05:38:28;;;;;;;0.88;0.88;;;;;;;;;;4950299;28;20046;-59
2022/09/30 05:41:14;;;;;;;3.03;1.85;;;;;;;;;;4953546;28;20027;-59
2022/09/30 05:44:00;;;;;;;1.27;0.90;;;;;;;;;;4947918;28;20047;-59
2022/09/30 05:46:46;;;;;;;3.40;0.93;;;;;;;;;;4944684;28;20407;-60
2022/09/30 05:49:33;;;;;;;1.80;0.90;;;;;;;;;;4949852;28;20051;-59
2022/09/30 05:52:19;;;;;;;1.90;0.90;;;;;;;;;;4935273;28;20118;-59
2022/09/30 05:55:05;;;;;;;6.35;0.88;;;;;;;;;;4946675;28;20047;-59
2022/09/30 05:57:51;;;;;;;4.03;0.70;;;;;;;;;;4947736;28;20078;-59
2022/09/30 06:00:42;;;;;;;1.73;0.90;;;;;;;;;;4951399;28;20093;-59
2022/09/30 06:03:27;;;;;;;3.78;1.05;;;;;;;;;;4948259;28;20031;-59
2022/09/30 06:06:14;;;;;;;2.78;0.90;;;;;;;;;;4947618;28;20090;-60
2022/09/30 06:09:00;;;;;;;3.47;0.82;;;;;;;;;;4947168;28;20035;-59
2022/09/30 06:11:46;;;;;;;2.30;0.90;;;;;;;;;;4943096;28;20050;-59
2022/09/30 06:14:32;;;;;;;2.05;1.08;;;;;;;;;;4951290;28;20039;-59
2022/09/30 06:17:18;;;;;;;4.13;1.17;;;;;;;;;;4945221;28;20075;-59
2022/09/30 06:20:04;;;;;;;2.35;1.17;;;;;;;;;;4950921;28;20067;-59
2022/09/30 06:22:50;;;;;;;1.92;0.82;;;;;;;;;;4949678;28;20057;-60
2022/09/30 06:25:36;;;;;;;6.65;0.85;;;;;;;;;;4948581;28;20039;-59
2022/09/30 06:28:22;;;;;;;1.13;0.93;;;;;;;;;;4950207;28;20595;-60
2022/09/30 06:31:08;;;;;;;4.28;1.08;;;;;;;;;;4946647;28;20036;-60
2022/09/30 06:33:54;;;;;;;5.63;2.05;;;;;;;;;;4948144;28;20047;-59
2022/09/30 06:36:41;;;;;;;5.05;1.23;;;;;;;;;;4948430;28;20094;-59
2022/09/30 06:39:26;;;;;;;1.85;0.90;;;;;;;;;;4950911;28;20038;-59
2022/09/30 06:42:13;;;;;;;4.13;0.80;;;;;;;;;;4951158;28;20098;-59
2022/09/30 06:44:59;;;;;;;1.23;0.77;;;;;;;;;;4947149;28;20023;-59
2022/09/30 06:47:45;;;;;;;3.72;1.00;;;;;;;;;;4946783;28;20039;-59
2022/09/30 06:50:31;;;;;;;1.73;0.75;;;;;;;;;;4947481;28;20057;-59
2022/09/30 06:53:17;;;;;;;1.02;0.77;;;;;;;;;;4946866;28;20046;-58
2022/09/30 06:56:03;;;;;;;5.05;1.10;;;;;;;;;;4946435;28;20053;-57
2022/09/30 06:58:49;;;;;;;1.92;1.20;;;;;;;;;;4946109;28;20051;-59
2022/09/30 07:01:35;;;;;;;3.83;1.45;;;;;;;;;;4950206;28;20109;-55
2022/09/30 07:04:20;;;;;;;2.70;1.02;;;;;;;;;;4946996;28;20027;-59
2022/09/30 07:07:06;;;;;;;5.45;0.80;;;;;;;;;;4945714;28;20032;-59
2022/09/30 07:09:54;;;;;;;3.03;1.00;;;;;;;;;;4947410;28;20043;-58
2022/09/30 07:12:41;;;;;;;1.88;0.98;;;;;;;;;;4945271;28;20055;-58
2022/09/30 07:15:26;;;;;;;6.90;0.98;;;;;;;;;;4949891;28;20035;-59
2022/09/30 07:18:12;;;;;;;2.42;1.10;;;;;;;;;;4946907;28;20107;-58
2022/09/30 07:20:58;;;;;;;1.33;1.08;;;;;;;;;;4947538;28;20066;-58
2022/09/30 07:23:47;;;;;;;6.95;2.10;;;;;;;;;;4945758;28;20575;-59
2022/09/30 07:26:33;;;;;;;1.40;1.15;;;;;;;;;;4952007;28;20440;-58
2022/09/30 07:29:19;;;;;;;3.13;0.85;;;;;;;;;;4947982;28;20050;-59
2022/09/30 07:32:06;;;;;;;1.20;0.77;;;;;;;;;;4947926;28;20094;-57
2022/09/30 07:34:51;;;;;;;1.00;0.85;;;;;;;;;;4946403;28;20472;-58
2022/09/30 07:37:37;;;;;;;2.72;1.70;;;;;;;;;;4948879;28;20047;-58
2022/09/30 07:40:23;;;;;;;1.50;0.75;;;;;;;;;;4944572;28;20035;-58
2022/09/30 07:43:09;;;;;;;2.75;0.80;;;;;;;;;;4949293;28;23159;-58
2022/09/30 07:45:55;;;;;;;4.25;1.20;;;;;;;;;;4949121;28;20047;-58
2022/09/30 07:48:45;;;;;;;2.08;1.17;;;;;;;;;;4948215;28;20492;-56
2022/09/30 07:51:34;;;;;;;2.28;1.35;;;;;;;;;;4951584;28;20121;-58
2022/09/30 07:54:22;;;;;;;2.65;1.05;;;;;;;;;;4949579;28;20122;-58
2022/09/30 07:57:08;;;;;;;1.10;1.00;;;;;;;;;;4946582;28;20070;-58
2022/09/30 07:59:54;;;;;;;3.10;1.10;;;;;;;;;;4944199;28;20684;-59
2022/09/30 08:02:39;;;;;;;2.38;1.05;;;;;;;;;;4947251;28;20035;-56
2022/09/30 08:05:25;;;;;;;1.73;0.98;;;;;;;;;;4946574;28;20045;-59
2022/09/30 08:08:12;;;;;;;3.38;1.30;;;;;;;;;;4948767;28;20039;-59
2022/09/30 08:10:59;;;;;;;4.50;1.20;;;;;;;;;;4951671;28;20026;-58
2022/09/30 08:13:55;;;;;;;1.85;1.20;;;;;;;;;;4950136;28;20078;-58
2022/09/30 08:16:41;;;;;;;0.73;0.73;;;;;;;;;;4952857;28;20033;-59
2022/09/30 08:19:32;;;;;;;4.43;1.05;;;;;;;;;;4952075;28;20162;-59
2022/09/30 08:22:18;;;;;;;5.45;1.10;;;;;;;;;;4949500;28;20051;-59
2022/09/30 08:25:04;;;;;;;0.88;0.80;;;;;;;;;;4951727;28;20385;-59
2022/09/30 08:27:50;;;;;;;2.33;1.10;;;;;;;;;;4949875;28;20050;-58
2022/09/30 08:30:36;;;;;;;0.93;0.88;;;;;;;;;;4954000;28;20038;-59
2022/09/30 08:33:22;;;;;;;4.63;1.15;;;;;;;;;;4942029;28;20051;-58
2022/09/30 08:36:21;;;;;;;1.42;1.02;;;;;;;;;;4948269;28;20033;-60
2022/09/30 08:39:06;;;;;;;5.00;1.02;;;;;;;;;;4947167;28;20207;-58
2022/09/30 08:42:07;;;;;;;1.08;1.00;;;;;;;;;;4948130;28;20105;-60
2022/09/30 08:45:22;;;;;;;3.80;1.30;;;;;;;;;;4956347;28;20444;-59
2022/09/30 08:48:25;;;;;;;1.23;0.93;;;;;;;;;;4875095;29;20053;-59
2022/09/30 08:51:32;;;;;;;2.50;0.93;;;;;;;;;;4873319;29;20115;-58
2022/09/30 08:54:22;;;;;;;3.20;1.30;;;;;;;;;;4876058;29;20057;-59
2022/09/30 08:57:09;;;;;;;4.30;0.82;;;;;;;;;;4875194;29;20041;-59
2022/09/30 08:59:59;;;;;;;5.28;1.13;;;;;;;;;;4824457;29;20215;-59
2022/09/30 09:02:53;;;;;;;1.95;0.85;;;;;;;;;;4862528;29;20147;-59
2022/09/30 09:05:45;;;;;;;1.65;0.73;;;;;;;;;;4857233;29;20037;-59
2022/09/30 09:08:36;;;;;;;0.88;0.88;;;;;;;;;;4850893;29;20060;-58
2022/09/30 09:11:39;;;;;;;1.75;0.70;;;;;;;;;;4859444;29;20049;-58
2022/09/30 09:14:56;;;;;;;5.72;0.80;;;;;;;;;;4859136;29;20108;-59
2022/09/30 09:17:57;;;;;;;6.65;1.23;;;;;;;;;;4854143;29;20041;-59
2022/09/30 09:20:53;;;;;;;4.15;0.82;;;;;;;;;;4854446;29;20037;-59
2022/09/30 09:23:39;;;;;;;3.60;0.65;;;;;;;;;;4854281;29;20053;-59
2022/09/30 09:26:29;;;;;;;2.33;0.90;;;;;;;;;;4928403;29;20031;-59
2022/09/30 09:29:35;;;;;;;1.08;0.70;;;;;;;;;;4931758;29;20046;-60
2022/09/30 09:32:24;;;;;;;3.05;1.42;;;;;;;;;;4934054;29;20048;-59
2022/09/30 09:35:14;;;;;;;4.38;0.68;;;;;;;;;;4925690;29;20028;-59
2022/09/30 09:38:24;;;;;;;1.10;0.73;;;;;;;;;;4934697;29;20054;-59
2022/09/30 09:41:52;;;;;;;1.67;0.90;;;;;;;;;;4934780;29;20028;-46
2022/09/30 09:44:57;;;;;;;2.75;1.30;;;;;;;;;;4894090;29;20029;-60
2022/09/30 09:47:49;;;;;;;1.13;0.65;;;;;;;;;;4893052;29;20096;-58
2022/09/30 09:51:02;;;;;;;1.88;0.70;;;;;;;;;;4894923;29;20059;-59
2022/09/30 09:53:51;;;;;;;0.60;0.60;;;;;;;;;;4892597;29;20124;-59
2022/09/30 09:56:37;;;;;;;6.68;0.85;;;;;;;;;;4894483;29;20433;-58
2022/09/30 09:59:23;;;;;;;1.27;0.70;;;;;;;;;;4892204;29;20044;-55
2022/09/30 10:02:30;;;;;;;4.70;0.80;;;;;;;;;;4889244;29;20127;-59
2022/09/30 10:05:25;;;;;;;3.08;0.65;;;;;;;;;;4891271;29;20044;-57
2022/09/30 10:08:20;;;;;;;1.85;0.77;;;;;;;;;;4877328;29;20478;-59
2022/09/30 10:11:19;;;;;;;1.25;0.80;;;;;;;;;;4889195;29;20179;-59
2022/09/30 10:14:17;;;;;;;8.80;0.70;;;;;;;;;;4893887;29;20044;-59
2022/09/30 10:17:04;;;;;;;2.63;0.73;;;;;;;;;;4892757;29;20052;-59
2022/09/30 10:19:59;;;;;;;2.83;0.60;;;;;;;;;;4934404;29;20126;-57
2022/09/30 10:22:46;;;;;;;1.10;0.90;;;;;;;;;;4927762;29;20047;-59
2022/09/30 10:25:32;;;;;;;6.43;0.68;;;;;;;;;;4924180;29;20042;-59
2022/09/30 10:28:27;;;;;;;3.40;0.60;;;;;;;;;;4931737;29;20040;-59
2022/09/30 10:31:25;;;;;;;4.60;1.05;;;;;;;;;;4931031;29;20036;-59
2022/09/30 10:34:28;;;;;;;2.70;0.73;;;;;;;;;;4928609;29;20476;-59
2022/09/30 10:37:15;;;;;;;;;;;;;;;;;;4928595;29;20138;-59
2022/09/30 10:40:07;;;;;;;1.10;0.70;;;;;;;;;;4933570;29;20357;-58
2022/09/30 10:42:55;;;;;;;0.90;0.55;;;;;;;;;;4924106;29;20056;-59
2022/09/30 10:45:43;;;;;;;3.35;0.70;;;;;;;;;;4931157;29;20043;-59
2022/09/30 10:48:34;;;;;;;0.60;0.60;;;;;;;;;;4929180;29;20038;-60
2022/09/30 10:51:35;;;;;;;1.92;0.60;;;;;;;;;;4926396;29;20040;-58
2022/09/30 10:54:38;;;;;;;1.42;0.60;;;;;;;;;;4935426;29;20086;-59
2022/09/30 10:57:28;;;;;;;0.60;0.60;;;;;;;;;;4928363;29;20044;-58
2022/09/30 11:00:26;;;;;;;1.20;0.60;;;;;;;;;;4928542;29;20428;-59
2022/09/30 11:03:17;;;;;;;0.95;0.60;;;;;;;;;;4932087;28;20530;-59
2022/09/30 11:06:06;;;;;;;0.60;0.50;;;;;;;;;;4932711;29;20042;-59
2022/09/30 11:09:06;;;;;;;0.85;0.63;;;;;;;;;;4927127;29;20080;-59
2022/09/30 11:12:01;;;;;;;1.75;0.88;;;;;;;;;;4926743;29;20064;-59
2022/09/30 11:14:56;;;;;;;0.73;0.60;;;;;;;;;;4926382;29;20599;-58
2022/09/30 11:18:22;;;;;;;6.15;0.80;;;;;;;;;;4924930;29;20055;-59
2022/09/30 11:21:24;;;;;;;1.17;0.70;;;;;;;;;;4926700;29;20046;-59
2022/09/30 11:24:13;;;;;;;1.38;0.40;;;;;;;;;;4931316;29;20059;-60
2022/09/30 11:27:37;;;;;;;3.60;0.75;;;;;;;;;;4927897;29;20044;-59
2022/09/30 11:30:48;;;;;;;8.13;0.73;;;;;;;;;;4928313;29;20548;-59
2022/09/30 11:33:50;;;;;;;0.88;0.57;;;;;;;;;;4929342;29;20043;-59
2022/09/30 11:37:03;;;;;;;5.05;0.60;;;;;;;;;;4928462;29;20054;-59
2022/09/30 11:40:20;;;;;;;2.13;0.55;;;;;;;;;;4931462;29;20039;-59
2022/09/30 11:43:29;;;;;;;5.07;0.60;;;;;;;;;;4930601;28;20604;-59
2022/09/30 11:46:29;;;;;;;1.20;0.40;;;;;;;;;;4929582;29;20027;-59
2022/09/30 11:49:29;;;;;;;1.23;0.60;;;;;;;;;;4931089;29;20045;-58
2022/09/30 11:52:36;;;;;;;3.58;0.40;;;;;;;;;;4932853;29;20501;-58
2022/09/30 11:55:44;;;;;;;1.40;0.40;;;;;;;;;;4931753;29;20051;-59
2022/09/30 11:58:36;;;;;;;0.65;0.40;;;;;;;;;;4934145;29;20044;-59
2022/09/30 12:01:40;;;;;;;;;;;;;;;;;;4930888;29;20198;-60
2022/09/30 12:04:30;;;;;;;3.30;0.57;;;;;;;;;;4932781;29;19922;-59
2022/09/30 12:07:33;;;;;;;0.80;0.80;;;;;;;;;;4930839;29;20051;-59
2022/09/30 12:10:26;;;;;;;1.83;0.50;;;;;;;;;;4934731;29;20032;-59
2022/09/30 12:13:17;;;;;;;0.77;0.57;;;;;;;;;;4932189;29;20556;-59
2022/09/30 12:16:10;;;;;;;0.30;0.30;;;;;;;;;;4922922;29;20042;-55
2022/09/30 12:19:16;;;;;;;1.67;0.45;;;;;;;;;;4926977;29;20047;-60
2022/09/30 12:22:13;;;;;;;7.68;0.70;;;;;;;;;;4926015;29;20078;-59
2022/09/30 12:25:00;;;;;;;3.30;0.75;;;;;;;;;;4933087;29;20035;-59
2022/09/30 12:27:51;;;;;;;5.70;0.60;;;;;;;;;;4932019;29;20068;-58
2022/09/30 12:30:37;;;;;;;0.40;0.40;;;;;;;;;;4932357;29;20036;-60
2022/09/30 12:33:57;;;;;;;7.28;0.68;;;;;;;;;;4929004;29;20072;-57
2022/09/30 12:37:01;;;;;;;0.55;0.55;;;;;;;;;;4928473;29;20405;-56
2022/09/30 12:40:26;;;;;;;2.92;0.68;;;;;;;;;;4930653;29;20035;-58
2022/09/30 12:43:27;;;;;;;0.45;0.45;;;;;;;;;;4837584;29;20046;-60
2022/09/30 12:46:25;;;;;;;0.80;0.30;;;;;;;;;;4836475;29;20038;-60
2022/09/30 12:49:14;;;;;;;0.43;0.40;;;;;;;;;;4842124;29;20049;-60
2022/09/30 12:52:05;;;;;;;10.10;0.80;;;;;;;;;;4834479;29;20874;-57
2022/09/30 12:54:56;;;;;;;1.63;0.60;;;;;;;;;;4839585;29;20082;-59
2022/09/30 12:57:42;;;;;;;0.40;0.40;;;;;;;;;;4838030;29;20077;-60
2022/09/30 13:00:33;;;;;;;0.50;0.50;;;;;;;;;;4836621;29;20042;-60
2022/09/30 13:03:19;;;;;;;1.02;0.40;;;;;;;;;;4840168;29;20197;-60
2022/09/30 13:06:05;;;;;;;1.20;0.60;;;;;;;;;;4837985;29;20073;-59
2022/09/30 13:09:09;;;;;;;1.70;0.50;;;;;;;;;;4836595;29;20057;-59
2022/09/30 13:11:58;;;;;;;2.00;0.40;;;;;;;;;;4841600;29;20049;-60
2022/09/30 13:14:44;;;;;;;3.65;0.47;;;;;;;;;;4842434;29;20048;-59
2022/09/30 13:17:30;;;;;;;1.00;0.52;;;;;;;;;;4840196;29;20087;-60
2022/09/30 13:20:55;;;;;;;3.55;0.55;;;;;;;;;;4900831;29;20500;-60
2022/09/30 13:23:47;;;;;;;6.55;0.45;;;;;;;;;;4928537;29;20051;-60
2022/09/30 13:26:37;;;;;;;;;;;;;;;;;;4930270;29;20068;-59
2022/09/30 13:29:23;;;;;;;4.90;0.75;;;;;;;;;;4933892;29;19945;-59
2022/09/30 13:32:09;;;;;;;0.60;0.52;;;;;;;;;;4928116;29;20040;-60
2022/09/30 13:34:56;;;;;;;7.53;0.60;;;;;;;;;;4931360;29;20031;-60
2022/09/30 13:37:42;;;;;;;2.15;0.60;;;;;;;;;;4931940;29;20044;-60
2022/09/30 13:40:30;;;;;;;2.42;0.60;;;;;;;;;;4929966;29;20050;-60
2022/09/30 13:43:21;;;;;;;2.90;1.08;;;;;;;;;;4930828;28;20032;-60
2022/09/30 13:46:17;;;;;;;3.40;0.60;;;;;;;;;;4930505;29;20503;-60
2022/09/30 13:49:15;;;;;;;2.55;0.50;;;;;;;;;;4929639;29;20559;-59
2022/09/30 13:52:05;;;;;;;0.40;0.40;;;;;;;;;;4929498;29;20051;-60
2022/09/30 13:54:54;;;;;;;0.47;0.47;;;;;;;;;;4933453;28;20114;-60
2022/09/30 13:57:50;;;;;;;0.70;0.70;;;;;;;;;;4924495;29;20666;-60
2022/09/30 14:01:17;;;;;;;1.85;0.55;;;;;;;;;;4928312;29;20036;-60
2022/09/30 14:04:28;;;;;;;4.65;0.98;;;;;;;;;;4933073;29;20609;-57
2022/09/30 14:07:29;;;;;;;4.95;0.70;;;;;;;;;;4929610;28;20043;-59
2022/09/30 14:10:33;;;;;;;13.85;0.75;;;;;;;;;;4931056;29;20093;-59
2022/09/30 14:13:46;;;;;;;2.13;0.63;;;;;;;;;;4931039;28;20685;-60
2022/09/30 14:17:14;;;;;;;4.95;0.60;;;;;;;;;;4931000;28;20138;-60
2022/09/30 14:20:58;;;;;;;1.45;0.77;;;;;;;;;;4933580;29;20036;-60
2022/09/30 14:23:43;;;;;;;0.65;0.65;;;;;;;;;;4817140;29;20054;-61
2022/09/30 14:26:57;;;;;;;0.82;0.63;;;;;;;;;;4815697;29;20420;-60
2022/09/30 14:29:46;;;;;;;0.88;0.80;;;;;;;;;;4820146;29;20195;-59
2022/09/30 14:32:45;;;;;;;0.82;0.60;;;;;;;;;;4815942;29;21028;-60
2022/09/30 14:35:33;;;;;;;0.77;0.60;;;;;;;;;;4815032;29;20124;-60
2022/09/30 14:38:28;;;;;;;2.22;0.55;;;;;;;;;;4800062;29;20046;-60
2022/09/30 14:41:19;;;;;;;0.93;0.60;;;;;;;;;;4817240;29;20562;-59
2022/09/30 14:44:06;;;;;;;1.67;1.17;;;;;;;;;;4816026;29;20133;-60
2022/09/30 14:46:59;;;;;;;1.02;0.50;;;;;;;;;;4800872;29;20050;-60
2022/09/30 14:49:45;;;;;;;0.55;0.50;;;;;;;;;;4815345;29;20058;-60
2022/09/30 14:52:36;;;;;;;3.70;0.60;;;;;;;;;;4818080;29;20053;-60
2022/09/30 14:55:29;;;;;;;0.95;0.60;;;;;;;;;;4815165;29;20117;-59
2022/09/30 14:58:29;;;;;;;1.17;0.70;;;;;;;;;;4845393;29;20073;-60
2022/09/30 15:01:16;;;;;;;7.47;0.50;;;;;;;;;;4927380;29;20039;-59
2022/09/30 15:04:07;;;;;;;1.10;0.50;;;;;;;;;;4928214;29;20071;-59
2022/09/30 15:06:54;;;;;;;0.63;0.28;;;;;;;;;;4935313;28;20086;-59
2022/09/30 15:09:42;;;;;;;0.77;0.50;;;;;;;;;;4930223;29;20389;-60
2022/09/30 15:12:28;;;;;;;0.40;0.40;;;;;;;;;;4931528;28;20043;-60
2022/09/30 15:15:23;;;;;;;7.88;0.55;;;;;;;;;;4929703;29;20050;-60
2022/09/30 15:18:27;;;;;;;1.15;0.50;;;;;;;;;;4928857;29;20099;-60
2022/09/30 15:21:15;;;;;;;2.42;0.75;;;;;;;;;;4926130;29;20027;-59
2022/09/30 15:24:01;;;;;;;1.55;0.55;;;;;;;;;;4933970;29;20043;-60
2022/09/30 15:26:48;;;;;;;0.90;0.50;;;;;;;;;;4931229;28;20040;-60
2022/09/30 15:29:34;;;;;;;1.10;0.57;;;;;;;;;;4928713;29;20491;-61
2022/09/30 15:32:22;;;;;;;0.60;0.40;;;;;;;;;;4932701;28;20047;-60
2022/09/30 15:35:34;;;;;;;1.63;0.40;;;;;;;;;;4932115;29;20035;-60
2022/09/30 15:38:24;;;;;;;2.08;0.63;;;;;;;;;;4933045;29;20052;-60
2022/09/30 15:41:10;;;;;;;3.88;0.80;;;;;;;;;;4928378;29;20671;-60
2022/09/30 15:43:59;;;;;;;0.45;0.45;;;;;;;;;;4921147;29;20039;-61
2022/09/30 15:47:04;;;;;;;0.60;0.60;;;;;;;;;;4931962;29;20093;-59
2022/09/30 15:49:50;;;;;;;0.82;0.80;;;;;;;;;;4922681;29;20195;-60
2022/09/30 15:52:38;;;;;;;4.13;0.52;;;;;;;;;;4930247;29;20035;-58
2022/09/30 15:55:40;;;;;;;1.42;0.85;;;;;;;;;;4927161;29;20079;-58
2022/09/30 15:58:32;;;;;;;1.63;0.30;;;;;;;;;;4919365;29;20293;-59
2022/09/30 16:01:20;;;;;;;3.20;0.50;;;;;;;;;;4925234;29;20092;-59
2022/09/30 16:04:15;;;;;;;1.00;0.47;;;;;;;;;;4925559;29;20060;-58
2022/09/30 16:07:08;;;;;;;0.50;0.47;;;;;;;;;;4918479;29;20035;-59
2022/09/30 16:09:56;;;;;;;0.50;0.50;;;;;;;;;;4923873;28;20476;-59
2022/09/30 16:12:48;;;;;;;1.38;0.47;;;;;;;;;;4925998;29;20039;-58
2022/09/30 16:15:40;;;;;;;0.40;0.40;;;;;;;;;;4928273;29;20039;-59
2022/09/30 16:18:28;;;;;;;1.75;0.60;;;;;;;;;;4925853;29;20039;-59
2022/09/30 16:21:29;;;;;;;1.40;0.45;;;;;;;;;;4933959;29;20053;-59
2022/09/30 16:24:21;;;;;;;1.73;0.80;;;;;;;;;;4929010;29;20040;-58
2022/09/30 16:27:22;;;;;;;1.50;0.63;;;;;;;;;;4932204;29;20402;-59
2022/09/30 16:30:12;;;;;;;9.50;0.82;;;;;;;;;;4930616;29;20452;-46
2022/09/30 16:33:03;;;;;;;0.50;0.50;;;;;;;;;;4931963;29;20062;-46
2022/09/30 16:35:49;;;;;;;0.60;0.60;;;;;;;;;;4935405;29;20107;-47
2022/09/30 16:38:34;;;;;;;4.20;0.70;;;;;;;;;;4923474;29;20070;-45
2022/09/30 16:41:20;;;;;;;0.40;0.40;;;;;;;;;;4938356;29;20031;-46
2022/09/30 16:44:06;;;;;;;1.70;0.50;;;;;;;;;;4929067;28;20090;-46
2022/09/30 16:46:52;;;;;;;1.20;0.50;;;;;;;;;;4936663;29;20111;-45
2022/09/30 16:49:37;;;;;;;0.60;0.60;;;;;;;;;;4927531;29;20083;-49
2022/09/30 16:52:24;;;;;;;0.82;0.68;;;;;;;;;;4940866;29;20039;-47
2022/09/30 16:55:10;;;;;;;0.40;0.40;;;;;;;;;;4920291;29;20031;-45
2022/09/30 16:57:57;;;;;;;1.90;0.75;;;;;;;;;;4923010;29;20051;-45
2022/09/30 17:00:44;;;;;;;1.67;0.60;;;;;;;;;;4932740;29;20032;-47
2022/09/30 17:03:30;;;;;;;0.70;0.70;;;;;;;;;;4929168;28;20063;-47
2022/09/30 17:06:17;;;;;;;1.00;0.60;;;;;;;;;;4932198;29;20028;-46
2022/09/30 17:09:04;;;;;;;2.67;0.88;;;;;;;;;;4927547;29;20036;-50
2022/09/30 17:11:50;;;;;;;5.65;0.60;;;;;;;;;;4927330;29;20459;-47
2022/09/30 17:14:36;;;;;;;1.88;0.60;;;;;;;;;;4922621;29;20047;-46
2022/09/30 17:17:22;;;;;;;0.90;0.60;;;;;;;;;;4934027;29;20034;-44